Time;durP1;ratioP1;P1;durP2;ratioP2;P2;SDS_P1;SDS_P2;PMS_P1;PMS_P2;Temp;Humidity;BMP_temperature;BMP_pressure;BME280_temperature;BME280_humidity;BME280_pressure;Samples;Min_cycle;Max_cycle;Signal;HPM_P1;HPM_P2
2022/05/24 00:00:04;;;;;;;0.30;0.30;;;14.40;99.90;;;;;;5095194;28;20043;-75
2022/05/24 00:02:30;;;;;;;0.30;0.30;;;14.40;99.90;;;;;;5094754;28;20040;-76
2022/05/24 00:04:55;;;;;;;0.30;0.30;;;14.40;99.90;;;;;;5094695;28;20051;-74
2022/05/24 00:07:21;;;;;;;0.40;0.40;;;14.40;99.90;;;;;;5094514;28;20055;-74
2022/05/24 00:09:46;;;;;;;1.37;1.27;;;14.40;99.90;;;;;;5094507;28;20048;-73
2022/05/24 00:12:12;;;;;;;0.30;0.30;;;14.40;99.90;;;;;;5094348;28;20080;-77
2022/05/24 00:17:22;;;;;;;0.40;0.40;;;14.30;99.90;;;;;;5094350;28;20048;-74
2022/05/24 00:19:47;;;;;;;0.30;0.30;;;14.30;99.90;;;;;;5094257;28;20044;-78
2022/05/24 00:22:13;;;;;;;1.27;0.82;;;14.20;99.90;;;;;;5094326;28;20054;-73
2022/05/24 00:24:39;;;;;;;0.30;0.30;;;14.20;99.90;;;;;;5094163;28;20047;-73
2022/05/24 00:27:04;;;;;;;4.80;0.97;;;14.20;99.90;;;;;;5094192;28;20063;-72
2022/05/24 00:29:30;;;;;;;0.40;0.40;;;14.20;99.90;;;;;;5094613;28;20044;-75
2022/05/24 00:31:56;;;;;;;0.30;0.30;;;14.20;99.90;;;;;;5094438;28;20044;-73
2022/05/24 00:34:21;;;;;;;0.37;0.37;;;14.20;99.90;;;;;;5094059;28;20451;-74
2022/05/24 00:36:47;;;;;;;0.38;0.38;;;14.20;99.90;;;;;;5094104;28;20044;-74
2022/05/24 00:39:12;;;;;;;0.82;0.82;;;14.20;99.90;;;;;;5094017;28;20044;-72
2022/05/24 00:41:42;;;;;;;0.33;0.33;;;14.20;99.90;;;;;;5093958;28;20090;-76
2022/05/24 00:44:18;;;;;;;0.50;0.50;;;14.20;99.90;;;;;;5093818;28;20036;-76
2022/05/24 00:47:07;;;;;;;0.50;0.50;;;14.10;99.90;;;;;;5093948;28;20134;-72
2022/05/24 00:49:43;;;;;;;0.85;0.80;;;14.10;99.90;;;;;;5093999;28;20040;-76
2022/05/24 00:52:09;;;;;;;0.50;0.50;;;14.10;99.90;;;;;;5093907;28;20052;-74
2022/05/24 00:54:34;;;;;;;0.40;0.40;;;14.10;99.90;;;;;;5093512;28;20143;-75
2022/05/24 00:57:10;;;;;;;1.13;0.90;;;14.10;99.90;;;;;;5093873;28;20040;-74
2022/05/24 00:59:41;;;;;;;0.80;0.80;;;14.00;99.90;;;;;;5093851;28;20127;-76
2022/05/24 01:02:07;;;;;;;0.50;0.50;;;14.00;99.90;;;;;;5093699;28;20044;-74
2022/05/24 01:04:33;;;;;;;0.40;0.40;;;14.10;99.90;;;;;;5093659;28;20051;-73
2022/05/24 01:06:58;;;;;;;0.40;0.40;;;14.00;99.90;;;;;;5094203;28;20091;-73
2022/05/24 01:09:42;;;;;;;0.30;0.30;;;14.00;99.90;;;;;;5093700;28;20128;-71
2022/05/24 01:12:38;;;;;;;0.30;0.30;;;13.90;99.90;;;;;;5093699;28;20044;-73
2022/05/24 01:15:07;;;;;;;0.77;0.77;;;13.90;99.90;;;;;;5093630;28;20463;-73
2022/05/24 01:17:34;;;;;;;0.75;0.57;;;13.90;99.90;;;;;;5093598;28;20457;-77
2022/05/24 01:20:00;;;;;;;0.30;0.30;;;13.80;99.90;;;;;;5093655;28;20127;-75
2022/05/24 01:22:34;;;;;;;0.30;0.30;;;13.80;99.90;;;;;;5093802;28;20123;-73
2022/05/24 01:25:24;;;;;;;2.65;1.10;;;13.70;99.90;;;;;;5093710;28;20361;-72
2022/05/24 01:27:49;;;;;;;0.40;0.40;;;13.70;99.90;;;;;;5093651;28;20048;-77
2022/05/24 01:30:15;;;;;;;0.30;0.30;;;13.60;99.90;;;;;;5093967;28;20044;-73
2022/05/24 01:38:12;;;;;;;0.50;0.50;;;13.50;99.90;;;;;;5097357;28;20083;-72
2022/05/24 01:40:38;;;;;;;0.40;0.40;;;13.40;99.90;;;;;;5097358;28;20043;-72
2022/05/24 01:43:04;;;;;;;0.40;0.40;;;13.40;99.90;;;;;;5097568;28;20048;-73
2022/05/24 01:45:35;;;;;;;0.47;0.47;;;13.40;99.90;;;;;;5097276;28;20039;-76
2022/05/24 01:48:08;;;;;;;0.38;0.38;;;13.40;99.90;;;;;;5097381;28;20486;-74
2022/05/24 01:50:36;;;;;;;0.40;0.40;;;13.30;99.90;;;;;;5097100;28;20492;-74
2022/05/24 01:53:14;;;;;;;0.40;0.40;;;13.30;99.90;;;;;;5096403;28;20052;-73
2022/05/24 01:55:44;;;;;;;0.50;0.50;;;13.30;99.90;;;;;;5097139;28;20127;-78
2022/05/24 01:58:13;;;;;;;0.40;0.40;;;13.30;99.90;;;;;;5097033;28;20079;-72
2022/05/24 02:00:43;;;;;;;0.40;0.40;;;13.30;99.90;;;;;;5096690;28;20044;-76
2022/05/24 02:03:09;;;;;;;0.40;0.40;;;13.20;99.90;;;;;;5096829;28;20097;-74
2022/05/24 02:05:39;;;;;;;0.70;0.70;;;13.20;99.90;;;;;;5096869;28;20040;-74
2022/05/24 02:08:07;;;;;;;0.40;0.40;;;13.20;99.90;;;;;;5097186;28;20048;-76
2022/05/24 02:10:39;;;;;;;0.40;0.40;;;13.20;99.90;;;;;;5096540;28;20048;-75
2022/05/24 02:13:06;;;;;;;0.40;0.40;;;13.20;99.90;;;;;;5096803;28;20044;-74
2022/05/24 02:15:36;;;;;;;0.40;0.40;;;13.20;99.90;;;;;;5096557;28;20377;-72
2022/05/24 02:18:08;;;;;;;0.40;0.40;;;13.30;99.90;;;;;;5096709;28;20115;-73
2022/05/24 02:20:37;;;;;;;0.40;0.40;;;13.30;99.90;;;;;;5096902;28;20081;-76
2022/05/24 02:23:03;;;;;;;0.40;0.40;;;13.40;99.90;;;;;;5096658;28;20058;-74
2022/05/24 02:25:39;;;;;;;0.70;0.70;;;13.40;99.90;;;;;;5096490;28;20566;-76
2022/05/24 02:28:10;;;;;;;0.40;0.40;;;13.40;99.90;;;;;;5096434;28;20048;-74
2022/05/24 02:30:45;;;;;;;0.40;0.40;;;13.50;99.90;;;;;;5096863;28;20118;-72
2022/05/24 02:33:10;;;;;;;0.40;0.40;;;13.50;99.90;;;;;;5096406;28;20036;-78
2022/05/24 02:35:36;;;;;;;0.50;0.50;;;13.50;99.90;;;;;;5096643;28;20067;-75
2022/05/24 02:38:03;;;;;;;0.40;0.40;;;13.50;99.90;;;;;;5095373;28;20040;-75
2022/05/24 02:43:12;;;;;;;0.88;0.88;;;13.60;99.90;;;;;;5096533;28;20387;-75
2022/05/24 02:45:38;;;;;;;0.40;0.40;;;13.60;99.90;;;;;;5096166;28;20051;-73
2022/05/24 02:48:04;;;;;;;0.60;0.60;;;13.60;99.90;;;;;;5096325;28;20043;-75
2022/05/24 02:50:30;;;;;;;0.40;0.40;;;13.70;99.90;;;;;;5096283;28;20541;-77
2022/05/24 02:52:56;;;;;;;0.75;0.75;;;13.60;99.90;;;;;;5095988;28;20185;-71
2022/05/24 02:55:22;;;;;;;0.30;0.30;;;13.70;99.90;;;;;;5096006;28;20143;-73
2022/05/24 02:57:47;;;;;;;0.83;0.63;;;13.70;99.90;;;;;;5095846;28;20048;-75
2022/05/24 03:00:23;;;;;;;1.17;1.15;;;13.70;99.90;;;;;;5095369;28;20054;-73
2022/05/24 03:02:49;;;;;;;1.23;1.15;;;13.70;99.90;;;;;;5095980;28;20040;-73
2022/05/24 03:05:16;;;;;;;0.38;0.38;;;13.70;99.90;;;;;;5095715;28;20050;-74
2022/05/24 03:10:28;;;;;;;1.27;1.05;;;13.70;99.90;;;;;;5095419;28;20056;-74
2022/05/24 03:15:39;;;;;;;0.50;0.50;;;13.70;99.90;;;;;;5094689;28;20055;-72
2022/05/24 03:18:06;;;;;;;0.50;0.50;;;13.80;99.90;;;;;;5094550;28;20218;-76
2022/05/24 03:20:31;;;;;;;0.60;0.60;;;13.80;99.90;;;;;;5094370;28;20044;-73
2022/05/24 03:22:57;;;;;;;0.50;0.50;;;13.80;99.90;;;;;;5094339;28;20373;-76
2022/05/24 03:25:22;;;;;;;0.80;0.80;;;13.80;99.90;;;;;;5094637;28;20508;-74
2022/05/24 03:27:49;;;;;;;0.90;0.87;;;13.80;99.90;;;;;;5094356;28;20039;-72
2022/05/24 03:30:15;;;;;;;1.45;0.75;;;13.80;99.90;;;;;;5094201;28;20483;-73
2022/05/24 03:32:41;;;;;;;0.70;0.70;;;13.90;99.90;;;;;;5094263;28;20055;-75
2022/05/24 03:35:11;;;;;;;0.40;0.40;;;13.90;99.90;;;;;;5094226;28;20044;-74
2022/05/24 03:37:37;;;;;;;0.43;0.43;;;13.90;99.90;;;;;;5094511;28;20071;-76
2022/05/24 03:40:04;;;;;;;0.63;0.63;;;13.90;99.90;;;;;;5094356;28;20095;-75
2022/05/24 03:42:30;;;;;;;;;;;13.90;99.90;;;;;;5094328;28;20076;-76
2022/05/24 03:44:56;;;;;;;0.70;0.70;;;13.90;99.90;;;;;;5094039;28;20001;-72
2022/05/24 03:47:21;;;;;;;0.40;0.40;;;14.00;99.90;;;;;;5094150;28;20472;-74
2022/05/24 03:49:47;;;;;;;2.20;1.77;;;13.90;99.90;;;;;;5093744;28;20044;-71
2022/05/24 03:52:13;;;;;;;0.70;0.70;;;14.00;99.90;;;;;;5093973;28;20056;-75
2022/05/24 03:54:39;;;;;;;0.85;0.85;;;14.00;99.90;;;;;;5093915;28;20131;-73
2022/05/24 03:59:49;;;;;;;0.57;0.57;;;14.00;99.90;;;;;;5093389;28;20048;-74
2022/05/24 04:02:14;;;;;;;3.00;1.60;;;14.00;99.90;;;;;;5093666;28;20044;-71
2022/05/24 04:04:40;;;;;;;1.47;1.03;;;14.00;99.90;;;;;;5093671;28;20083;-74
2022/05/24 04:07:05;;;;;;;0.73;0.73;;;14.00;99.90;;;;;;5094146;28;20093;-73
2022/05/24 04:09:33;;;;;;;0.85;0.80;;;14.00;99.90;;;;;;5057669;28;1025834;-77
2022/05/24 04:11:58;;;;;;;1.08;0.98;;;14.10;99.90;;;;;;5094523;28;20126;-75
2022/05/24 04:14:24;;;;;;;1.77;1.63;;;14.10;99.90;;;;;;5094433;28;20201;-75
2022/05/24 04:16:49;;;;;;;1.55;0.73;;;14.10;99.90;;;;;;5094366;28;20559;-74
2022/05/24 04:19:15;;;;;;;1.17;1.10;;;14.00;99.90;;;;;;5094414;28;20048;-72
2022/05/24 04:21:40;;;;;;;4.70;1.13;;;14.10;99.90;;;;;;5094268;28;20044;-72
2022/05/24 04:24:06;;;;;;;0.50;0.50;;;14.10;99.90;;;;;;5094487;28;20487;-76
2022/05/24 04:26:32;;;;;;;0.93;0.87;;;14.10;99.90;;;;;;5094417;28;20133;-75
2022/05/24 04:28:57;;;;;;;0.50;0.50;;;14.10;99.90;;;;;;5094245;28;20052;-73
2022/05/24 04:31:23;;;;;;;0.40;0.40;;;14.10;99.90;;;;;;5094261;28;20059;-75
2022/05/24 04:33:49;;;;;;;0.90;0.83;;;14.10;99.90;;;;;;5094380;28;20400;-73
2022/05/24 04:36:15;;;;;;;0.80;0.80;;;14.10;99.90;;;;;;5094089;28;20048;-73
2022/05/24 04:38:40;;;;;;;0.80;0.80;;;14.20;99.90;;;;;;5094114;28;20040;-76
2022/05/24 04:43:50;;;;;;;0.52;0.52;;;14.20;99.90;;;;;;5093942;28;20048;-72
2022/05/24 04:46:16;;;;;;;0.40;0.40;;;14.20;99.90;;;;;;5092508;28;20048;-73
2022/05/24 04:48:41;;;;;;;1.55;1.45;;;14.10;99.90;;;;;;5093963;28;20460;-74
2022/05/24 04:51:07;;;;;;;0.93;0.93;;;14.10;99.90;;;;;;5093612;28;20135;-72
2022/05/24 04:53:32;;;;;;;0.70;0.70;;;14.10;99.90;;;;;;5093969;28;20079;-77
2022/05/24 04:55:58;;;;;;;0.70;0.70;;;14.10;99.90;;;;;;5094043;28;20101;-73
2022/05/24 04:58:24;;;;;;;0.52;0.52;;;14.00;99.90;;;;;;5093832;28;20135;-76
2022/05/24 05:00:50;;;;;;;0.40;0.40;;;14.00;99.90;;;;;;5093740;28;20116;-75
2022/05/24 05:03:18;;;;;;;0.60;0.60;;;14.00;99.90;;;;;;5093795;28;20392;-77
2022/05/24 05:05:45;;;;;;;0.73;0.73;;;13.90;99.90;;;;;;5093724;28;20495;-72
2022/05/24 05:08:11;;;;;;;;;;;13.90;99.90;;;;;;5094150;28;20044;-73
2022/05/24 05:10:37;;;;;;;0.30;0.30;;;13.90;99.90;;;;;;5093477;28;19927;-73
2022/05/24 05:13:06;;;;;;;0.70;0.70;;;13.90;99.90;;;;;;5097935;28;20036;-76
2022/05/24 05:15:34;;;;;;;0.40;0.40;;;13.90;99.90;;;;;;5097715;28;20097;-74
2022/05/24 05:18:04;;;;;;;1.45;0.88;;;13.90;99.90;;;;;;5097740;28;20217;-75
2022/05/24 05:20:31;;;;;;;0.63;0.63;;;13.90;99.90;;;;;;5097744;28;20048;-76
2022/05/24 05:22:56;;;;;;;0.60;0.60;;;13.90;99.90;;;;;;5097621;28;20357;-77
2022/05/24 05:25:22;;;;;;;1.33;1.23;;;14.00;99.90;;;;;;5097786;28;20042;-74
2022/05/24 05:27:47;;;;;;;2.43;1.53;;;13.90;99.90;;;;;;5097618;28;20044;-76
2022/05/24 05:32:57;;;;;;;1.85;1.05;;;13.90;99.90;;;;;;5096526;28;20043;-76
2022/05/24 05:35:23;;;;;;;0.67;0.67;;;13.90;99.90;;;;;;5097699;28;20048;-75
2022/05/24 05:37:48;;;;;;;0.55;0.55;;;13.80;99.90;;;;;;5097362;28;20048;-77
2022/05/24 05:40:14;;;;;;;0.50;0.50;;;13.90;99.90;;;;;;5097312;28;20090;-74
2022/05/24 05:42:40;;;;;;;0.60;0.60;;;13.90;99.90;;;;;;5097218;28;20079;-76
2022/05/24 05:45:06;;;;;;;2.10;1.45;;;14.00;99.90;;;;;;5097345;28;20087;-77
2022/05/24 05:47:32;;;;;;;1.13;1.02;;;14.00;99.90;;;;;;5097193;28;20048;-78
2022/05/24 05:49:58;;;;;;;0.40;0.40;;;14.10;99.90;;;;;;5097116;28;20093;-76
2022/05/24 05:52:23;;;;;;;0.67;0.67;;;14.20;99.90;;;;;;5097331;28;20044;-73
2022/05/24 05:54:49;;;;;;;1.70;0.77;;;14.20;99.90;;;;;;5096103;28;20058;-73
2022/05/24 05:57:14;;;;;;;0.40;0.40;;;14.20;99.90;;;;;;5096960;28;20449;-74
2022/05/24 05:59:40;;;;;;;1.02;0.93;;;14.20;99.90;;;;;;5096992;28;20043;-75
2022/05/24 06:02:07;;;;;;;0.80;0.80;;;14.10;99.90;;;;;;5096921;28;20051;-72
2022/05/24 06:04:33;;;;;;;1.33;1.23;;;14.00;99.90;;;;;;5096818;28;20196;-74
2022/05/24 06:06:59;;;;;;;0.40;0.40;;;14.00;99.90;;;;;;5096743;28;20134;-75
2022/05/24 06:09:25;;;;;;;0.93;0.87;;;14.00;99.90;;;;;;5096678;28;20052;-74
2022/05/24 06:11:50;;;;;;;0.60;0.60;;;14.00;99.90;;;;;;5096806;28;20130;-74
2022/05/24 06:14:16;;;;;;;0.63;0.63;;;14.10;99.90;;;;;;5097703;28;20169;-75
2022/05/24 06:16:41;;;;;;;1.05;0.95;;;14.20;99.90;;;;;;5097448;28;20130;-72
2022/05/24 06:19:07;;;;;;;1.90;1.40;;;14.30;99.90;;;;;;5097450;28;20399;-76
2022/05/24 06:21:33;;;;;;;0.88;0.50;;;14.20;99.90;;;;;;5097603;28;20051;-73
2022/05/24 06:24:04;;;;;;;1.50;0.60;;;14.30;99.90;;;;;;5096020;28;20040;-74
2022/05/24 06:26:30;;;;;;;0.40;0.40;;;14.30;99.90;;;;;;5096412;28;20309;-75
2022/05/24 06:28:59;;;;;;;1.87;0.93;;;14.30;99.90;;;;;;5095428;28;20044;-73
2022/05/24 06:31:25;;;;;;;0.55;0.52;;;14.40;99.90;;;;;;5096693;28;20407;-73
2022/05/24 06:33:51;;;;;;;4.53;1.37;;;14.40;99.90;;;;;;5096603;28;20047;-75
2022/05/24 06:36:17;;;;;;;1.10;1.00;;;14.30;99.90;;;;;;5096384;28;20278;-76
2022/05/24 06:38:42;;;;;;;1.95;0.73;;;14.30;99.90;;;;;;5096354;28;20143;-75
2022/05/24 06:41:08;;;;;;;0.67;0.67;;;14.30;99.90;;;;;;5097557;28;20135;-76
2022/05/24 06:43:34;;;;;;;0.55;0.55;;;14.30;99.90;;;;;;5098067;28;20051;-73
2022/05/24 06:46:00;;;;;;;1.17;0.93;;;14.40;99.90;;;;;;5096098;28;20075;-74
2022/05/24 06:48:26;;;;;;;0.70;0.70;;;14.50;99.90;;;;;;5096064;28;20047;-73
2022/05/24 06:50:51;;;;;;;1.67;1.57;;;14.50;99.90;;;;;;5095978;28;20048;-76
2022/05/24 06:53:17;;;;;;;1.67;1.48;;;14.50;99.90;;;;;;5095889;28;20044;-73
2022/05/24 06:55:43;;;;;;;1.03;0.93;;;14.40;99.90;;;;;;5094929;28;20052;-73
2022/05/24 06:58:09;;;;;;;1.63;1.52;;;14.40;99.90;;;;;;5095802;28;20067;-76
2022/05/24 07:03:19;;;;;;;0.70;0.70;;;14.30;99.90;;;;;;5095495;28;20392;-76
2022/05/24 07:05:45;;;;;;;0.93;0.93;;;14.20;99.90;;;;;;5094665;28;20127;-75
2022/05/24 07:08:11;;;;;;;0.63;0.63;;;14.20;99.90;;;;;;5095642;28;20051;-74
2022/05/24 07:10:39;;;;;;;0.30;0.30;;;14.20;99.90;;;;;;5095146;28;20060;-75
2022/05/24 07:13:08;;;;;;;0.63;0.63;;;14.20;99.90;;;;;;5095245;28;20498;-75
2022/05/24 07:15:33;;;;;;;0.55;0.55;;;14.20;99.90;;;;;;5095516;28;20058;-73
2022/05/24 07:18:00;;;;;;;0.50;0.50;;;14.20;99.90;;;;;;5095515;28;20122;-71
2022/05/24 07:20:26;;;;;;;0.30;0.30;;;14.20;99.90;;;;;;5095505;28;20102;-77
2022/05/24 07:22:53;;;;;;;2.80;1.65;;;14.20;99.90;;;;;;5095294;28;20286;-72
2022/05/24 07:25:19;;;;;;;0.40;0.40;;;14.30;99.90;;;;;;5095299;28;20044;-76
2022/05/24 07:27:45;;;;;;;0.35;0.35;;;14.40;99.90;;;;;;5095374;28;20044;-72
2022/05/24 07:30:11;;;;;;;0.40;0.40;;;14.40;99.90;;;;;;5095225;28;20122;-75
2022/05/24 07:32:37;;;;;;;10.55;1.45;;;14.50;99.90;;;;;;5095150;28;20036;-73
2022/05/24 07:35:05;;;;;;;0.50;0.50;;;14.40;99.90;;;;;;5094360;28;20093;-76
2022/05/24 07:37:31;;;;;;;0.50;0.50;;;14.50;99.90;;;;;;5094904;28;20044;-74
2022/05/24 07:48:09;;;;;;;0.40;0.40;;;14.60;99.90;;;;;;5093814;28;20087;-76
2022/05/24 07:50:36;;;;;;;0.70;0.70;;;14.60;99.90;;;;;;5094816;28;20079;-76
2022/05/24 07:53:01;;;;;;;0.40;0.40;;;14.60;99.90;;;;;;5094809;28;20044;-73
2022/05/24 07:55:27;;;;;;;0.43;0.43;;;14.60;99.90;;;;;;5094746;28;20040;-73
2022/05/24 07:57:53;;;;;;;0.40;0.40;;;14.70;99.90;;;;;;5094904;28;20097;-74
2022/05/24 08:00:19;;;;;;;0.50;0.50;;;14.70;99.90;;;;;;5094633;28;20051;-72
2022/05/24 08:02:44;;;;;;;0.40;0.40;;;14.70;99.90;;;;;;5094009;28;20051;-76
2022/05/24 08:05:11;;;;;;;0.70;0.70;;;14.50;99.90;;;;;;5094576;28;20374;-76
2022/05/24 08:07:37;;;;;;;0.68;0.68;;;14.50;99.90;;;;;;5094884;28;20082;-75
2022/05/24 08:10:04;;;;;;;23.88;1.10;;;14.60;99.90;;;;;;5094457;28;20393;-73
2022/05/24 08:12:31;;;;;;;0.50;0.50;;;14.50;99.90;;;;;;5094319;28;20048;-74
2022/05/24 08:14:58;;;;;;;;;;;14.60;99.90;;;;;;5094844;28;20407;-76
2022/05/24 08:17:23;;;;;;;0.65;0.65;;;14.70;99.90;;;;;;5094059;28;19930;-75
2022/05/24 08:19:49;;;;;;;0.40;0.40;;;14.80;99.90;;;;;;5094345;28;20043;-72
2022/05/24 08:22:14;;;;;;;1.37;1.27;;;15.00;99.90;;;;;;5094284;28;20122;-75
2022/05/24 08:24:40;;;;;;;0.40;0.40;;;15.10;99.90;;;;;;5094467;28;20043;-72
2022/05/24 08:27:06;;;;;;;0.30;0.30;;;15.10;99.90;;;;;;5094153;28;20044;-72
2022/05/24 08:29:32;;;;;;;0.52;0.52;;;15.10;99.90;;;;;;5094132;28;20059;-75
2022/05/24 08:31:57;;;;;;;0.77;0.70;;;15.10;99.90;;;;;;5094101;28;20048;-75
2022/05/24 08:34:23;;;;;;;0.40;0.40;;;15.20;99.90;;;;;;5094501;28;20039;-74
2022/05/24 08:36:48;;;;;;;0.40;0.40;;;15.30;99.90;;;;;;5093983;28;20043;-74
2022/05/24 08:39:14;;;;;;;0.50;0.50;;;15.50;99.90;;;;;;5094023;28;20040;-73
2022/05/24 08:42:07;;;;;;;0.40;0.40;;;15.70;99.90;;;;;;5093991;28;20047;-71
2022/05/24 08:50:13;;;;;;;1.65;1.30;;;15.70;99.90;;;;;;5094056;28;20048;-74
2022/05/24 08:52:41;;;;;;;;;;;15.70;99.90;;;;;;5094295;28;20079;-76
2022/05/24 08:55:09;;;;;;;0.30;0.30;;;16.00;99.90;;;;;;5093862;28;19974;-76
2022/05/24 08:57:47;;;;;;;0.40;0.40;;;16.20;99.90;;;;;;5093777;28;20472;-75
2022/05/24 09:00:22;;;;;;;0.50;0.30;;;16.50;99.90;;;;;;5093857;28;20048;-72
2022/05/24 09:02:48;;;;;;;0.70;0.70;;;16.60;99.90;;;;;;5093875;28;20040;-76
2022/05/24 09:05:24;;;;;;;0.60;0.60;;;16.60;99.90;;;;;;5093698;28;20131;-75
2022/05/24 09:08:15;;;;;;;0.35;0.35;;;16.60;99.90;;;;;;5094299;28;20055;-74
2022/05/24 09:11:17;;;;;;;0.40;0.40;;;16.80;99.90;;;;;;5093976;28;20135;-76
2022/05/24 09:14:08;;;;;;;0.90;0.73;;;17.20;99.90;;;;;;5093051;28;20044;-76
2022/05/24 09:16:56;;;;;;;0.40;0.40;;;17.50;99.90;;;;;;5093376;28;20048;-76
2022/05/24 09:19:26;;;;;;;0.40;0.40;;;17.70;99.90;;;;;;5079275;28;20058;-75
2022/05/24 09:21:53;;;;;;;8.20;1.85;;;18.00;99.90;;;;;;5093701;28;20051;-74
2022/05/24 09:24:42;;;;;;;0.40;0.40;;;18.30;99.90;;;;;;5093367;28;20106;-75
2022/05/24 09:27:17;;;;;;;0.30;0.30;;;18.40;99.90;;;;;;5093953;28;20404;-72
2022/05/24 09:29:56;;;;;;;0.65;0.47;;;18.50;99.90;;;;;;5093350;28;20040;-74
2022/05/24 09:32:28;;;;;;;0.50;0.50;;;18.30;99.90;;;;;;5093466;28;20051;-73
2022/05/24 09:35:09;;;;;;;0.30;0.30;;;18.20;99.90;;;;;;5093423;28;20484;-73
2022/05/24 09:37:35;;;;;;;0.30;0.30;;;18.00;99.90;;;;;;5093392;28;20044;-77
2022/05/24 09:40:17;;;;;;;0.30;0.30;;;17.80;99.90;;;;;;5093452;28;20059;-77
2022/05/24 09:42:43;;;;;;;0.30;0.30;;;17.70;99.90;;;;;;5093358;28;20044;-74
2022/05/24 09:45:36;;;;;;;0.30;0.30;;;17.50;99.90;;;;;;5093318;28;20529;-76
2022/05/24 09:48:02;;;;;;;0.50;0.40;;;17.50;99.90;;;;;;5093690;28;20047;-74
2022/05/24 09:50:35;;;;;;;0.30;0.30;;;17.50;99.90;;;;;;5093342;28;20044;-75
2022/05/24 09:53:09;;;;;;;1.00;0.65;;;17.60;99.90;;;;;;5093550;28;20285;-76
2022/05/24 09:56:01;;;;;;;0.30;0.30;;;17.60;99.90;;;;;;5093215;28;20052;-73
2022/05/24 09:58:38;;;;;;;0.70;0.70;;;17.30;99.90;;;;;;5096174;28;20059;-75
2022/05/24 10:01:07;;;;;;;0.52;0.52;;;17.20;99.90;;;;;;5096889;28;20086;-75
2022/05/24 10:03:38;;;;;;;0.30;0.30;;;17.00;99.90;;;;;;5097115;28;20044;-76
2022/05/24 10:06:25;;;;;;;0.40;0.40;;;16.80;99.90;;;;;;5096820;28;20042;-77
2022/05/24 10:09:09;;;;;;;0.32;0.32;;;16.40;99.90;;;;;;5097231;28;20122;-77
2022/05/24 10:11:47;;;;;;;0.60;0.60;;;16.20;99.90;;;;;;5096752;28;20063;-72
2022/05/24 10:14:12;;;;;;;;;;;15.80;99.90;;;;;;5097212;28;20119;-74
2022/05/24 10:16:43;;;;;;;0.30;0.30;;;15.40;99.90;;;;;;5096586;28;20594;-74
2022/05/24 10:19:58;;;;;;;0.30;0.30;;;15.30;99.90;;;;;;5097119;28;20055;-74
2022/05/24 10:22:32;;;;;;;0.30;0.30;;;15.20;99.90;;;;;;5096593;28;20127;-76
2022/05/24 10:25:14;;;;;;;0.40;0.40;;;15.40;99.90;;;;;;5096460;28;20131;-75
2022/05/24 10:27:59;;;;;;;0.40;0.40;;;15.80;99.90;;;;;;5096835;28;20101;-77
2022/05/24 10:30:31;;;;;;;0.45;0.45;;;16.20;99.90;;;;;;5096699;28;20048;-74
2022/05/24 10:39:23;;;;;;;0.30;0.30;;;16.60;99.90;;;;;;5096157;28;20522;-76
2022/05/24 10:42:04;;;;;;;0.38;0.38;;;16.70;99.90;;;;;;5096186;28;20101;-74
2022/05/24 10:44:41;;;;;;;0.50;0.50;;;16.70;99.90;;;;;;5096093;28;20048;-75
2022/05/24 10:47:22;;;;;;;0.30;0.30;;;16.50;99.90;;;;;;5096072;28;20040;-76
2022/05/24 10:49:56;;;;;;;0.40;0.40;;;15.90;99.90;;;;;;5096072;28;20423;-76
2022/05/24 10:52:34;;;;;;;0.50;0.50;;;15.60;99.90;;;;;;5096306;28;20449;-74
2022/05/24 10:55:06;;;;;;;0.40;0.40;;;15.30;99.90;;;;;;5095963;28;20036;-74
2022/05/24 10:57:41;;;;;;;0.32;0.32;;;14.90;99.90;;;;;;5096257;28;20083;-72
2022/05/24 11:00:34;;;;;;;0.30;0.30;;;14.60;99.90;;;;;;5095989;28;20040;-75
2022/05/24 11:03:12;;;;;;;0.30;0.30;;;14.40;99.90;;;;;;5085199;28;20496;-73
2022/05/24 11:05:55;;;;;;;0.40;0.40;;;14.20;99.90;;;;;;5095810;28;20036;-76
2022/05/24 11:08:35;;;;;;;0.30;0.30;;;14.20;99.90;;;;;;5094716;28;20403;-72
2022/05/24 11:11:13;;;;;;;0.30;0.30;;;14.30;99.90;;;;;;5096023;28;20051;-78
2022/05/24 11:13:53;;;;;;;0.30;0.30;;;14.70;99.90;;;;;;5096004;28;20093;-71
2022/05/24 11:16:37;;;;;;;0.30;0.30;;;15.00;99.90;;;;;;5095631;28;20415;-76
2022/05/24 11:19:06;;;;;;;0.30;0.30;;;15.00;99.90;;;;;;5095543;28;20434;-74
2022/05/24 11:21:36;;;;;;;0.30;0.30;;;15.00;99.90;;;;;;5095446;28;20087;-75
2022/05/24 11:24:07;;;;;;;0.30;0.30;;;15.10;99.90;;;;;;5095268;28;20040;-77
2022/05/24 11:26:39;;;;;;;0.30;0.30;;;15.10;99.90;;;;;;5095692;28;20410;-73
2022/05/24 11:29:22;;;;;;;0.30;0.30;;;15.10;99.90;;;;;;5095297;28;20127;-74
2022/05/24 11:31:51;;;;;;;0.40;0.40;;;15.10;99.90;;;;;;5095256;28;20480;-74
2022/05/24 11:34:27;;;;;;;0.30;0.30;;;15.00;99.90;;;;;;5095598;28;20098;-74
2022/05/24 11:37:02;;;;;;;0.30;0.30;;;14.90;99.90;;;;;;5095202;28;20087;-75
2022/05/24 11:39:35;;;;;;;0.30;0.30;;;14.80;99.90;;;;;;5095118;28;20097;-76
2022/05/24 11:42:25;;;;;;;0.35;0.35;;;14.70;99.90;;;;;;5095015;28;20047;-73
2022/05/24 11:44:53;;;;;;;0.40;0.40;;;14.50;99.90;;;;;;5095405;28;20036;-75
2022/05/24 11:47:39;;;;;;;0.30;0.30;;;14.20;99.90;;;;;;5095257;28;20039;-78
2022/05/24 11:50:38;;;;;;;0.40;0.40;;;14.20;99.90;;;;;;5095429;28;20056;-73
2022/05/24 11:53:05;;;;;;;0.40;0.40;;;14.40;99.90;;;;;;5078677;28;20051;-76
2022/05/24 11:55:40;;;;;;;0.30;0.30;;;14.70;99.90;;;;;;5095026;28;20044;-74
2022/05/24 11:58:23;;;;;;;0.30;0.30;;;14.80;99.90;;;;;;5095181;28;20039;-71
2022/05/24 12:01:29;;;;;;;0.30;0.30;;;15.10;99.90;;;;;;5095459;28;20124;-75
2022/05/24 12:10:01;;;;;;;0.37;0.37;;;15.40;99.90;;;;;;5096015;28;20091;-73
2022/05/24 12:12:31;;;;;;;0.30;0.30;;;15.40;99.90;;;;;;5096689;28;20059;-71
2022/05/24 12:15:20;;;;;;;0.65;0.65;;;15.50;99.90;;;;;;5096125;28;20536;-77
2022/05/24 12:17:59;;;;;;;0.30;0.30;;;15.40;99.90;;;;;;5096298;28;20069;-73
2022/05/24 12:20:33;;;;;;;0.40;0.40;;;15.40;99.90;;;;;;5099661;28;20047;-72
2022/05/24 12:23:09;;;;;;;0.40;0.40;;;15.20;99.90;;;;;;5099578;28;20055;-76
2022/05/24 12:26:08;;;;;;;0.30;0.30;;;15.40;99.90;;;;;;5095502;28;20048;-73
2022/05/24 12:28:34;;;;;;;0.30;0.30;;;15.30;99.90;;;;;;5095030;28;20048;-72
2022/05/24 12:31:13;;;;;;;0.30;0.30;;;15.30;99.90;;;;;;5094438;28;20088;-76
2022/05/24 12:34:00;;;;;;;0.30;0.30;;;15.30;99.90;;;;;;5094725;28;20062;-75
2022/05/24 12:36:44;;;;;;;0.30;0.30;;;15.30;99.90;;;;;;5094337;28;20050;-73
2022/05/24 12:39:16;;;;;;;0.30;0.30;;;15.50;99.90;;;;;;5093926;28;20488;-73
2022/05/24 12:41:48;;;;;;;0.30;0.30;;;15.60;99.90;;;;;;5094553;28;20051;-73
2022/05/24 12:44:19;;;;;;;0.30;0.30;;;15.60;99.90;;;;;;5094338;28;20052;-74
2022/05/24 12:47:08;;;;;;;0.35;0.35;;;15.60;99.90;;;;;;5094276;28;20504;-74
2022/05/24 12:49:36;;;;;;;0.60;0.60;;;15.50;99.90;;;;;;5083229;28;20427;-72
2022/05/24 12:52:14;;;;;;;0.30;0.30;;;15.40;99.90;;;;;;5093965;28;20044;-75
2022/05/24 12:54:49;;;;;;;0.30;0.30;;;15.40;99.90;;;;;;5094092;28;20422;-73
2022/05/24 12:57:20;;;;;;;0.35;0.35;;;15.50;99.90;;;;;;5093939;28;20134;-72
2022/05/24 12:59:57;;;;;;;0.30;0.30;;;15.60;99.90;;;;;;5093921;28;20127;-75
2022/05/24 13:02:33;;;;;;;0.30;0.30;;;15.80;99.90;;;;;;5094346;28;20097;-74
2022/05/24 13:05:11;;;;;;;0.30;0.30;;;16.20;99.90;;;;;;5093780;28;20086;-72
2022/05/24 13:08:05;;;;;;;0.30;0.30;;;16.70;99.90;;;;;;5094057;28;20040;-72
2022/05/24 13:10:38;;;;;;;0.38;0.38;;;17.00;99.90;;;;;;5089613;28;20113;-73
2022/05/24 13:13:14;;;;;;;0.30;0.30;;;17.30;99.90;;;;;;5093883;28;20135;-75
2022/05/24 13:15:59;;;;;;;0.30;0.30;;;17.40;99.90;;;;;;5093917;28;20464;-75
2022/05/24 13:18:32;;;;;;;0.40;0.40;;;17.40;99.90;;;;;;5093533;28;20044;-77
2022/05/24 13:21:00;;;;;;;1.10;0.38;;;17.50;99.90;;;;;;5093883;28;20388;-75
2022/05/24 13:23:30;;;;;;;0.32;0.32;;;17.60;99.90;;;;;;5093384;28;20072;-75
2022/05/24 13:26:12;;;;;;;0.40;0.40;;;17.80;99.90;;;;;;5093396;28;20044;-74
2022/05/24 13:28:44;;;;;;;0.30;0.30;;;17.80;99.90;;;;;;5093548;28;20492;-76
2022/05/24 13:34:36;;;;;;;0.20;0.20;;;18.10;99.90;;;;;;5097784;28;20070;-74
2022/05/24 13:37:03;;;;;;;0.30;0.30;;;18.30;99.90;;;;;;5097604;28;20048;-74
2022/05/24 13:39:35;;;;;;;0.30;0.30;;;18.50;99.90;;;;;;5097460;28;20063;-77
2022/05/24 13:42:10;;;;;;;0.30;0.30;;;18.50;99.90;;;;;;5097841;28;20051;-74
2022/05/24 13:44:38;;;;;;;0.30;0.30;;;18.40;99.90;;;;;;5097399;28;20036;-74
2022/05/24 13:47:06;;;;;;;0.30;0.30;;;18.20;99.90;;;;;;5097378;28;20411;-77
2022/05/24 13:49:43;;;;;;;0.30;0.30;;;18.10;99.90;;;;;;5097444;28;20040;-74
2022/05/24 13:52:25;;;;;;;0.30;0.30;;;18.00;99.90;;;;;;5097836;28;20137;-76
2022/05/24 13:55:08;;;;;;;0.30;0.30;;;17.80;99.90;;;;;;5097539;28;20051;-74
2022/05/24 13:57:45;;;;;;;0.43;0.43;;;17.70;99.90;;;;;;5097199;28;20039;-75
2022/05/24 14:00:18;;;;;;;0.30;0.30;;;17.40;99.90;;;;;;5097106;28;20140;-77
2022/05/24 14:02:44;;;;;;;0.35;0.35;;;17.00;99.90;;;;;;5097086;28;20040;-76